createdAt,value
2022-09-15T00:01:48.563Z,24.30
2022-09-15T00:04:18.344Z,22.73
2022-09-15T00:06:47.875Z,22.40
2022-09-15T00:09:15.077Z,21.67
2022-09-15T00:11:42.220Z,23.30
2022-09-15T00:14:11.883Z,19.80
2022-09-15T00:16:41.396Z,21.83
2022-09-15T00:19:08.894Z,19.87
2022-09-15T00:21:40.974Z,22.07
2022-09-15T00:24:11.429Z,20.07
2022-09-15T00:26:45.561Z,22.13
2022-09-15T00:29:15.445Z,20.37
2022-09-15T00:31:45.145Z,23.47
2022-09-15T00:34:13.555Z,21.87
2022-09-15T00:36:40.739Z,22.57
2022-09-15T00:39:07.959Z,20.27
2022-09-15T00:41:36.016Z,20.70
2022-09-15T00:44:27.001Z,19.67
2022-09-15T00:47:17.745Z,22.07
2022-09-15T00:49:45.859Z,21.73
2022-09-15T00:52:20.092Z,21.07
2022-09-15T00:55:00.017Z,19.47
2022-09-15T00:57:33.770Z,22.50
2022-09-15T01:00:09.236Z,20.80
2022-09-15T01:02:37.823Z,21.00
2022-09-15T01:05:08.754Z,25.00
2022-09-15T01:07:56.354Z,20.33
2022-09-15T01:10:27.880Z,19.57
2022-09-15T01:12:58.281Z,20.30
2022-09-15T01:15:38.277Z,19.17
2022-09-15T01:18:19.154Z,20.47
2022-09-15T01:21:10.576Z,18.87
2022-09-15T01:24:14.877Z,21.20
2022-09-15T01:27:41.435Z,18.90
2022-09-15T01:30:09.516Z,20.27
2022-09-15T01:33:01.393Z,22.03
2022-09-15T01:35:54.898Z,21.63
2022-09-15T01:38:38.010Z,21.43
2022-09-15T01:41:29.658Z,20.40
2022-09-15T01:44:05.736Z,19.80
2022-09-15T01:46:46.906Z,19.70
2022-09-15T01:49:25.408Z,20.13
2022-09-15T01:51:54.406Z,19.50
2022-09-15T01:54:28.956Z,21.23
2022-09-15T01:56:56.923Z,19.67
2022-09-15T01:59:24.338Z,19.23
2022-09-15T02:02:15.896Z,19.47
2022-09-15T02:04:57.905Z,18.53
2022-09-15T02:08:08.623Z,20.13
2022-09-15T02:10:51.449Z,18.37
2022-09-15T02:13:35.941Z,17.87
2022-09-15T02:16:04.856Z,17.73
2022-09-15T02:18:47.244Z,21.93
2022-09-15T02:21:31.607Z,19.27
2022-09-15T02:24:05.869Z,17.33
2022-09-15T02:26:37.663Z,18.00
2022-09-15T02:29:16.713Z,20.43
2022-09-15T02:31:49.669Z,16.60
2022-09-15T02:34:21.970Z,18.30
2022-09-15T02:36:53.112Z,18.40
2022-09-15T02:39:24.953Z,17.50
2022-09-15T02:41:57.192Z,16.63
2022-09-15T02:44:24.383Z,15.33
2022-09-15T02:46:52.330Z,15.90
2022-09-15T02:49:20.145Z,16.03
2022-09-15T02:51:49.895Z,16.17
2022-09-15T02:54:21.878Z,14.40
2022-09-15T02:56:53.691Z,14.83
2022-09-15T02:59:20.839Z,16.03
2022-09-15T03:01:48.066Z,17.97
2022-09-15T03:04:15.207Z,16.53
2022-09-15T03:06:43.568Z,15.03
2022-09-15T03:09:10.891Z,15.07
2022-09-15T03:11:38.034Z,14.93
2022-09-15T03:14:09.612Z,16.40
2022-09-15T03:16:36.871Z,14.03
2022-09-15T03:19:06.516Z,14.13
2022-09-15T03:21:33.698Z,15.47
2022-09-15T03:24:03.217Z,16.00
2022-09-15T03:26:31.042Z,17.60
2022-09-15T03:28:58.252Z,15.03
2022-09-15T03:31:27.861Z,16.37
2022-09-15T03:33:56.077Z,16.80
2022-09-15T03:36:27.845Z,13.77
2022-09-15T03:38:58.357Z,14.43
2022-09-15T03:41:27.855Z,12.80
2022-09-15T03:43:55.277Z,13.80
2022-09-15T03:46:24.662Z,14.83
2022-09-15T03:48:54.247Z,13.27
2022-09-15T03:51:24.031Z,13.43
2022-09-15T03:53:53.581Z,12.57
2022-09-15T03:56:23.088Z,12.83
2022-09-15T03:58:51.140Z,13.40
2022-09-15T04:01:19.145Z,15.20
2022-09-15T04:03:50.885Z,14.13
2022-09-15T04:06:20.972Z,15.33
2022-09-15T04:08:51.642Z,14.27
2022-09-15T04:11:22.980Z,13.43
2022-09-15T04:13:55.840Z,14.83
2022-09-15T04:16:27.670Z,13.43
2022-09-15T04:18:55.639Z,13.40
2022-09-15T04:21:25.889Z,13.73
2022-09-15T04:23:54.508Z,12.53
2022-09-15T04:26:33.740Z,14.43
2022-09-15T04:29:04.428Z,14.73
2022-09-15T04:31:37.279Z,13.63
2022-09-15T04:34:10.159Z,16.50
2022-09-15T04:36:37.787Z,14.53
2022-09-15T04:39:07.569Z,14.40
2022-09-15T04:41:39.408Z,16.27
2022-09-15T04:44:08.830Z,15.37
2022-09-15T04:46:36.039Z,16.00
2022-09-15T04:49:05.705Z,16.07
2022-09-15T04:51:37.740Z,16.27
2022-09-15T04:54:05.142Z,13.60
2022-09-15T04:56:34.727Z,14.90
2022-09-15T04:59:04.146Z,14.97
2022-09-15T05:01:36.030Z,18.20
2022-09-15T05:04:04.272Z,16.67
2022-09-15T05:06:32.183Z,16.50
2022-09-15T05:09:06.434Z,16.03
2022-09-15T05:11:36.382Z,14.10
2022-09-15T05:14:06.647Z,16.47
2022-09-15T05:16:40.619Z,18.07
2022-09-15T05:19:13.121Z,15.53
2022-09-15T05:21:40.298Z,15.60
2022-09-15T05:24:07.542Z,18.33
2022-09-15T05:26:41.825Z,17.80
2022-09-15T05:29:08.995Z,18.87
2022-09-15T05:31:39.250Z,19.13
2022-09-15T05:34:07.185Z,17.63
2022-09-15T05:36:34.599Z,18.83
2022-09-15T05:39:04.282Z,17.77
2022-09-15T05:41:33.746Z,19.87
2022-09-15T05:44:00.926Z,16.07
2022-09-15T05:46:31.078Z,17.93
2022-09-15T05:48:58.896Z,15.93
2022-09-15T05:51:30.410Z,16.10
2022-09-15T05:54:00.078Z,15.30
2022-09-15T05:56:32.329Z,16.57
2022-09-15T05:59:02.161Z,17.97
2022-09-15T06:01:32.791Z,18.27
2022-09-15T06:04:04.950Z,19.07
2022-09-15T06:06:39.005Z,20.80
2022-09-15T06:09:06.694Z,14.97
2022-09-15T06:11:38.519Z,16.77
2022-09-15T06:14:06.104Z,21.60
2022-09-15T06:16:35.031Z,18.55
2022-09-15T06:19:02.489Z,17.67
2022-09-15T06:21:33.930Z,21.13
2022-09-15T06:24:08.742Z,20.00
2022-09-15T06:26:35.975Z,16.40
2022-09-15T06:29:05.262Z,15.90
2022-09-15T06:31:37.641Z,19.60
2022-09-15T06:34:05.448Z,17.33
2022-09-15T06:36:39.474Z,18.20
2022-09-15T06:39:08.850Z,17.80
2022-09-15T06:41:58.780Z,21.13
2022-09-15T06:44:25.291Z,21.50
2022-09-15T06:46:59.233Z,21.83
2022-09-15T06:49:29.017Z,22.13
2022-09-15T06:51:56.459Z,16.87
2022-09-15T06:54:26.107Z,21.23
2022-09-15T06:56:57.896Z,18.80
2022-09-15T06:59:25.061Z,35.40
2022-09-15T07:01:55.002Z,30.67
2022-09-15T07:04:22.460Z,32.27
2022-09-15T07:06:50.592Z,18.40
2022-09-15T07:09:17.759Z,18.93
2022-09-15T07:11:47.167Z,27.17
2022-09-15T07:14:16.638Z,23.50
2022-09-15T07:16:46.102Z,19.10
2022-09-15T07:19:15.768Z,20.50
2022-09-15T07:21:42.933Z,21.30
2022-09-15T07:24:12.738Z,24.07
2022-09-15T07:26:40.898Z,24.30
2022-09-15T07:29:08.041Z,20.97
2022-09-15T07:31:43.450Z,21.33
2022-09-15T07:34:13.650Z,19.87
2022-09-15T07:36:40.756Z,22.20
2022-09-15T07:39:08.615Z,23.40
2022-09-15T07:41:35.800Z,18.77
2022-09-15T07:44:06.595Z,20.50
2022-09-15T07:46:36.444Z,20.27
2022-09-15T07:49:04.791Z,21.93
2022-09-15T07:51:32.099Z,18.83
2022-09-15T07:53:59.365Z,23.10
2022-09-15T07:56:26.622Z,25.80
2022-09-15T07:58:53.894Z,21.37
2022-09-15T08:01:27.646Z,20.23
2022-09-15T08:03:55.008Z,18.13
2022-09-15T08:06:26.625Z,19.10
2022-09-15T08:08:59.234Z,19.10
2022-09-15T08:11:27.400Z,19.70
2022-09-15T08:13:54.818Z,19.90
2022-09-15T08:16:23.764Z,25.97
2022-09-15T08:18:53.222Z,19.83
2022-09-15T08:21:23.781Z,22.17
2022-09-15T08:23:59.244Z,18.13
2022-09-15T08:26:27.883Z,20.33
2022-09-15T08:28:58.046Z,21.63
2022-09-15T08:31:27.542Z,18.30
2022-09-15T08:33:57.230Z,20.40
2022-09-15T08:36:27.873Z,19.30
2022-09-15T08:38:57.871Z,17.60
2022-09-15T08:41:32.349Z,19.00
2022-09-15T08:44:17.260Z,16.03
2022-09-15T08:47:06.926Z,17.57
2022-09-15T08:49:58.674Z,17.27
2022-09-15T08:52:38.150Z,23.97
2022-09-15T08:55:13.177Z,15.93
2022-09-15T08:57:40.643Z,13.77
2022-09-15T09:00:14.734Z,14.80
2022-09-15T09:02:44.998Z,13.73
2022-09-15T09:05:17.849Z,14.27
2022-09-15T09:07:51.330Z,12.53
2022-09-15T09:10:35.962Z,13.70
2022-09-15T09:13:21.849Z,15.23
2022-09-15T09:16:27.105Z,16.63
2022-09-15T09:19:11.690Z,13.53
2022-09-15T09:21:44.387Z,11.43
2022-09-15T09:24:40.320Z,11.60
2022-09-15T09:27:18.198Z,13.23
2022-09-15T09:29:53.222Z,11.20
2022-09-15T09:32:31.131Z,12.40
2022-09-15T09:35:03.672Z,10.50
2022-09-15T09:37:32.718Z,14.70
2022-09-15T09:40:05.027Z,12.20
2022-09-15T09:42:37.195Z,13.57
2022-09-15T09:45:12.253Z,11.27
2022-09-15T09:47:44.359Z,8.67
2022-09-15T09:50:41.585Z,10.30
2022-09-15T09:53:28.490Z,8.77
2022-09-15T09:56:22.247Z,10.13
2022-09-15T09:58:50.027Z,11.30
2022-09-15T10:01:20.590Z,10.93
2022-09-15T10:03:50.067Z,11.55
2022-09-15T10:06:29.395Z,10.27
2022-09-15T10:09:04.046Z,6.50
2022-09-15T10:11:51.535Z,6.03
2022-09-15T10:14:40.653Z,9.10
2022-09-15T10:17:38.758Z,8.77
2022-09-15T10:20:42.235Z,8.35
2022-09-15T10:23:15.266Z,8.38
2022-09-15T10:25:59.244Z,9.32
2022-09-15T10:28:28.412Z,7.33
2022-09-15T10:31:10.963Z,8.98
2022-09-15T10:33:47.865Z,8.07
2022-09-15T10:36:19.821Z,8.50
2022-09-15T10:38:58.913Z,7.03
2022-09-15T10:41:27.540Z,6.03
2022-09-15T10:44:25.587Z,7.07
2022-09-15T10:47:13.351Z,8.83
2022-09-15T10:50:16.091Z,5.77
2022-09-15T10:53:04.406Z,8.52
2022-09-15T10:55:56.106Z,11.05
2022-09-15T10:59:13.307Z,4.87
2022-09-15T11:02:03.308Z,5.05
2022-09-15T11:04:49.271Z,6.37
2022-09-15T11:07:38.159Z,7.57
2022-09-15T11:10:14.337Z,4.68
2022-09-15T11:13:11.282Z,4.70
2022-09-15T11:16:09.183Z,7.67
2022-09-15T11:18:57.484Z,3.63
2022-09-15T11:21:42.728Z,2.28
2022-09-15T11:24:37.795Z,4.95
2022-09-15T11:27:29.403Z,4.70
2022-09-15T11:30:20.095Z,4.50
2022-09-15T11:33:02.670Z,6.03
2022-09-15T11:35:59.505Z,5.53
2022-09-15T11:38:37.635Z,7.77
2022-09-15T11:41:19.443Z,5.93
2022-09-15T11:44:07.207Z,5.23
2022-09-15T11:47:31.703Z,3.83
2022-09-15T11:50:24.291Z,2.90
2022-09-15T11:53:16.955Z,3.53
2022-09-15T11:56:01.174Z,5.35
2022-09-15T11:58:30.373Z,2.45
2022-09-15T12:01:27.758Z,5.80
2022-09-15T12:04:08.525Z,4.47
2022-09-15T12:06:55.409Z,6.00
2022-09-15T12:09:22.991Z,3.80
2022-09-15T12:11:56.543Z,7.47
2022-09-15T12:14:39.491Z,4.80
2022-09-15T12:17:11.311Z,2.73
2022-09-15T12:19:51.757Z,5.20
2022-09-15T12:22:35.101Z,2.77
2022-09-15T12:25:31.966Z,3.70
2022-09-15T12:28:24.308Z,7.73
2022-09-15T12:31:17.573Z,3.50
2022-09-15T12:33:47.848Z,4.53
2022-09-15T12:36:40.211Z,3.53
2022-09-15T12:39:25.734Z,4.10
2022-09-15T12:42:26.203Z,1.70
2022-09-15T12:45:19.943Z,4.77
2022-09-15T12:48:02.023Z,3.83
2022-09-15T12:50:42.775Z,2.80
2022-09-15T12:53:25.090Z,4.40
2022-09-15T12:55:58.748Z,3.53
2022-09-15T12:58:41.246Z,5.10
2022-09-15T13:01:26.698Z,5.50
2022-09-15T13:03:59.362Z,6.60
2022-09-15T13:06:33.077Z,2.20
2022-09-15T13:09:05.745Z,3.00
2022-09-15T13:11:40.887Z,2.53
2022-09-15T13:14:26.751Z,3.77
2022-09-15T13:17:13.237Z,3.10
2022-09-15T13:19:51.213Z,4.57
2022-09-15T13:22:35.734Z,2.30
2022-09-15T13:25:16.562Z,2.45
2022-09-15T13:27:47.874Z,1.63
2022-09-15T13:30:21.334Z,8.13
2022-09-15T13:35:01.227Z,2.67
2022-09-15T13:39:47.801Z,4.63
2022-09-15T13:42:28.782Z,3.20
2022-09-15T13:45:01.760Z,4.77
2022-09-15T13:47:57.421Z,3.10
2022-09-15T13:50:36.892Z,4.40
2022-09-15T13:53:21.579Z,1.77
2022-09-15T13:55:53.700Z,3.43
2022-09-15T14:01:15.370Z,2.93
2022-09-15T14:03:45.213Z,1.87
2022-09-15T14:06:33.510Z,3.85
2022-09-15T14:09:13.634Z,3.33
2022-09-15T14:11:47.849Z,3.63
2022-09-15T14:14:45.172Z,4.43
2022-09-15T14:17:44.477Z,9.50
2022-09-15T14:20:35.260Z,6.03
2022-09-15T14:23:02.529Z,6.13
2022-09-15T14:25:30.685Z,3.28
2022-09-15T14:28:02.417Z,6.82
2022-09-15T14:30:34.954Z,3.55
2022-09-15T14:33:04.226Z,3.73
2022-09-15T14:35:37.768Z,4.03
2022-09-15T14:38:07.379Z,2.97
2022-09-15T14:40:39.461Z,3.85
2022-09-15T14:43:26.239Z,5.03
2022-09-15T14:46:05.181Z,11.32
2022-09-15T14:48:36.209Z,2.40
2022-09-15T14:51:18.729Z,3.75
2022-09-15T14:53:48.340Z,16.07
2022-09-15T14:56:21.392Z,9.27
2022-09-15T14:59:02.523Z,6.73
2022-09-15T15:01:59.046Z,4.57
2022-09-15T15:04:44.436Z,7.00
2022-09-15T15:07:28.232Z,2.10
2022-09-15T15:10:02.027Z,6.03
2022-09-15T15:12:31.867Z,4.88
2022-09-15T15:15:00.445Z,3.97
2022-09-15T15:17:33.078Z,4.45
2022-09-15T15:20:06.240Z,4.20
2022-09-15T15:22:33.431Z,2.58
2022-09-15T15:25:00.888Z,5.00
2022-09-15T15:27:34.431Z,8.57
2022-09-15T15:30:32.350Z,5.63
2022-09-15T15:33:19.384Z,7.65
2022-09-15T15:36:08.187Z,2.73
2022-09-15T15:38:47.811Z,4.70
2022-09-15T15:41:23.737Z,2.13
2022-09-15T15:44:08.129Z,5.83
2022-09-15T15:46:59.353Z,5.20
2022-09-15T15:49:30.455Z,4.10
2022-09-15T15:51:59.934Z,4.75
2022-09-15T15:54:27.551Z,2.90
2022-09-15T15:56:55.265Z,1.23
2022-09-15T15:59:22.656Z,3.57
2022-09-15T16:01:58.311Z,2.78
2022-09-15T16:04:36.786Z,3.47
2022-09-15T16:07:08.444Z,2.63
2022-09-15T16:09:41.139Z,1.13
2022-09-15T16:12:15.224Z,2.60
2022-09-15T16:14:45.690Z,4.93
2022-09-15T16:17:15.412Z,4.33
2022-09-15T16:19:42.537Z,2.10
2022-09-15T16:22:19.136Z,1.80
2022-09-15T16:24:48.830Z,3.33
2022-09-15T16:27:17.803Z,5.33
2022-09-15T16:29:50.744Z,10.18
2022-09-15T16:32:26.611Z,4.57
2022-09-15T16:34:54.879Z,2.83
2022-09-15T16:37:22.078Z,2.60
2022-09-15T16:39:52.560Z,4.30
2022-09-15T16:42:22.693Z,6.47
2022-09-15T16:44:52.379Z,2.60
2022-09-15T16:47:19.501Z,4.03
2022-09-15T16:49:46.637Z,2.60
2022-09-15T16:52:16.835Z,1.80
2022-09-15T16:54:46.915Z,4.25
2022-09-15T16:57:19.373Z,3.60
2022-09-15T16:59:51.107Z,1.30
2022-09-15T17:02:22.435Z,3.50
2022-09-15T17:04:52.268Z,5.30
2022-09-15T17:07:24.525Z,4.60
2022-09-15T17:09:52.707Z,2.03
2022-09-15T17:12:21.151Z,6.93
2022-09-15T17:14:50.511Z,4.83
2022-09-15T17:17:26.689Z,3.23
2022-09-15T17:19:53.912Z,4.87
2022-09-15T17:22:23.365Z,3.53
2022-09-15T17:24:50.567Z,3.03
2022-09-15T17:27:20.282Z,3.27
2022-09-15T17:29:47.682Z,8.83
2022-09-15T17:32:14.885Z,7.30
2022-09-15T17:34:42.091Z,10.20
2022-09-15T17:37:09.618Z,5.43
2022-09-15T17:39:39.064Z,6.23
2022-09-15T17:42:09.698Z,1.97
2022-09-15T17:44:39.426Z,4.13
2022-09-15T17:47:08.747Z,4.30
2022-09-15T17:49:40.593Z,5.07
2022-09-15T17:52:13.559Z,3.03
2022-09-15T17:54:40.749Z,4.43
2022-09-15T17:57:07.906Z,3.53
2022-09-15T17:59:35.161Z,3.47
2022-09-15T18:02:04.451Z,5.07
2022-09-15T18:04:36.784Z,3.90
2022-09-15T18:07:11.291Z,3.30
2022-09-15T18:09:38.614Z,4.07
2022-09-15T18:12:10.809Z,4.00
2022-09-15T18:14:38.271Z,3.10
2022-09-15T18:17:05.776Z,2.87
2022-09-15T18:19:36.029Z,3.87
2022-09-15T18:22:03.785Z,5.57
2022-09-15T18:24:30.925Z,3.60
2022-09-15T18:27:00.261Z,5.70
2022-09-15T18:29:27.600Z,3.83
2022-09-15T18:31:59.217Z,2.90
2022-09-15T18:34:28.717Z,3.23
2022-09-15T18:36:56.820Z,4.00
2022-09-15T18:39:24.181Z,2.40
2022-09-15T18:41:51.555Z,4.23
2022-09-15T18:44:18.748Z,5.63
2022-09-15T18:46:46.313Z,3.07
2022-09-15T18:49:13.887Z,2.77
2022-09-15T18:51:58.544Z,2.87
2022-09-15T18:54:28.703Z,4.37
2022-09-15T18:56:56.386Z,3.67
2022-09-15T18:59:26.141Z,2.53
2022-09-15T19:01:53.497Z,2.73
2022-09-15T19:04:22.863Z,3.10
2022-09-15T19:06:50.026Z,1.97
2022-09-15T19:09:19.585Z,2.77
2022-09-15T19:11:46.851Z,2.63
2022-09-15T19:14:14.020Z,4.67
2022-09-15T19:16:57.592Z,3.53
2022-09-15T19:19:26.186Z,5.30
2022-09-15T19:21:55.791Z,3.90
2022-09-15T19:24:23.463Z,3.93
2022-09-15T19:26:54.304Z,2.70
2022-09-15T19:29:21.661Z,3.80
2022-09-15T19:31:49.032Z,4.53
2022-09-15T19:34:18.892Z,4.33
2022-09-15T19:36:46.599Z,5.97
2022-09-15T19:39:16.273Z,5.47
2022-09-15T19:41:43.895Z,3.30
2022-09-15T19:44:15.933Z,3.90
2022-09-15T19:46:48.191Z,2.73
2022-09-15T19:49:16.194Z,3.37
2022-09-15T19:51:44.268Z,4.03
2022-09-15T19:54:14.212Z,3.53
2022-09-15T19:56:43.981Z,2.90
2022-09-15T19:59:11.325Z,2.80
2022-09-15T20:01:38.671Z,4.50
2022-09-15T20:04:09.101Z,6.17
2022-09-15T20:06:36.836Z,1.47
2022-09-15T20:09:05.246Z,3.23
2022-09-15T20:11:32.794Z,5.67
2022-09-15T20:14:00.478Z,2.27
2022-09-15T20:16:28.687Z,4.80
2022-09-15T20:18:58.206Z,4.47
2022-09-15T20:21:49.106Z,1.43
2022-09-15T20:24:20.761Z,2.23
2022-09-15T20:26:50.758Z,1.73
2022-09-15T20:29:18.491Z,3.57
2022-09-15T20:31:53.540Z,4.47
2022-09-15T20:34:23.373Z,5.50
2022-09-15T20:36:55.245Z,4.43
2022-09-15T20:39:22.858Z,3.10
2022-09-15T20:41:52.530Z,3.03
2022-09-15T20:44:22.385Z,4.23
2022-09-15T20:46:52.163Z,2.20
2022-09-15T20:49:19.663Z,2.70
2022-09-15T20:51:46.836Z,2.23
2022-09-15T20:54:16.152Z,3.47
2022-09-15T20:56:45.381Z,1.87
2022-09-15T20:59:14.175Z,2.23
2022-09-15T21:01:43.922Z,2.83
2022-09-15T21:04:13.907Z,2.77
2022-09-15T21:06:41.090Z,3.00
2022-09-15T21:09:10.529Z,4.83
2022-09-15T21:11:37.727Z,2.73
2022-09-15T21:14:07.587Z,4.83
2022-09-15T21:16:37.203Z,1.90
2022-09-15T21:19:04.349Z,3.20
2022-09-15T21:21:32.968Z,9.33
2022-09-15T21:24:06.072Z,2.67
2022-09-15T21:27:00.976Z,3.67
2022-09-15T21:29:29.459Z,6.37
2022-09-15T21:31:57.121Z,3.43
2022-09-15T21:34:24.565Z,7.30
2022-09-15T21:36:53.501Z,2.90
2022-09-15T21:39:21.332Z,3.13
2022-09-15T21:41:48.933Z,1.53
2022-09-15T21:44:16.360Z,2.97
2022-09-15T21:46:44.947Z,2.83
2022-09-15T21:49:12.078Z,4.93
2022-09-15T21:51:39.703Z,4.10
2022-09-15T21:54:11.288Z,3.83
2022-09-15T21:56:38.682Z,4.03
2022-09-15T21:59:13.332Z,3.50
2022-09-15T22:01:41.695Z,4.20
2022-09-15T22:04:11.119Z,3.23
2022-09-15T22:06:40.657Z,4.50
2022-09-15T22:09:09.468Z,3.60
2022-09-15T22:11:37.096Z,6.83
2022-09-15T22:14:08.089Z,5.07
2022-09-15T22:16:37.956Z,6.13
2022-09-15T22:19:09.708Z,2.90
2022-09-15T22:21:41.447Z,8.33
2022-09-15T22:24:12.869Z,3.43
2022-09-15T22:26:45.324Z,5.40
2022-09-15T22:29:14.737Z,3.33
2022-09-15T22:31:44.357Z,4.10
2022-09-15T22:34:11.579Z,4.43
2022-09-15T22:36:41.004Z,5.77
2022-09-15T22:39:11.969Z,4.70
2022-09-15T22:41:39.916Z,3.23
2022-09-15T22:44:18.088Z,3.97
2022-09-15T22:46:45.365Z,3.80
2022-09-15T22:49:15.052Z,3.47
2022-09-15T22:51:42.758Z,4.10
2022-09-15T22:54:09.840Z,4.27
2022-09-15T22:56:39.271Z,3.87
2022-09-15T22:59:09.061Z,2.03
2022-09-15T23:01:38.512Z,4.77
2022-09-15T23:04:05.694Z,3.50
2022-09-15T23:06:35.195Z,2.40
2022-09-15T23:09:07.747Z,4.77
2022-09-15T23:11:37.344Z,3.93
2022-09-15T23:14:04.672Z,3.27
2022-09-15T23:16:32.481Z,5.50
2022-09-15T23:18:59.973Z,2.20
2022-09-15T23:21:29.505Z,4.67
2022-09-15T23:23:59.221Z,4.67
2022-09-15T23:26:27.256Z,3.27
2022-09-15T23:28:54.724Z,5.00
2022-09-15T23:31:22.506Z,1.93
2022-09-15T23:33:49.747Z,3.07
2022-09-15T23:36:21.993Z,3.90
2022-09-15T23:38:49.648Z,6.23
2022-09-15T23:41:17.657Z,1.83
2022-09-15T23:43:45.427Z,4.43
2022-09-15T23:46:12.886Z,3.53
2022-09-15T23:48:40.073Z,4.00
2022-09-15T23:51:09.465Z,2.13
2022-09-15T23:53:38.783Z,4.37
2022-09-15T23:56:08.620Z,2.70
2022-09-15T23:58:38.854Z,4.37
